Time;durP1;ratioP1;P1;durP2;ratioP2;P2;SDS_P1;SDS_P2;PMS_P1;PMS_P2;Temp;Humidity;BMP_temperature;BMP_pressure;BME280_temperature;BME280_humidity;BME280_pressure;Samples;Min_cycle;Max_cycle;Signal;HPM_P1;HPM_P2
2023/07/25 00:01:51;;;;;;;;;;;14.50;99.90;;;;;;8406829;28;20293;-70
2023/07/25 00:05:52;;;;;;;;;;;14.50;99.90;;;;;;8391499;28;19965;-70
2023/07/25 00:09:54;;;;;;;;;;;14.50;99.90;;;;;;8368664;28;19925;-70
2023/07/25 00:13:56;;;;;;;;;;;14.40;99.90;;;;;;8405283;28;19925;-70
2023/07/25 00:17:57;;;;;;;;;;;14.40;99.90;;;;;;8396845;28;19924;-70
2023/07/25 00:21:59;;;;;;;;;;;14.30;99.90;;;;;;8377698;28;19925;-70
2023/07/25 00:26:01;;;;;;;;;;;14.30;99.90;;;;;;8354801;28;19935;-70
2023/07/25 00:30:04;;;;;;;;;;;14.20;99.90;;;;;;8393101;28;19924;-70
2023/07/25 00:34:06;;;;;;;;;;;14.20;99.90;;;;;;8385049;28;19946;-70
2023/07/25 00:38:08;;;;;;;;;;;14.20;99.90;;;;;;8384019;28;19975;-70
2023/07/25 00:42:09;;;;;;;;;;;14.20;99.90;;;;;;8379216;28;19925;-70
2023/07/25 00:46:11;;;;;;;;;;;14.20;99.90;;;;;;8383738;28;19925;-70
2023/07/25 00:50:13;;;;;;;;;;;14.10;99.90;;;;;;8392496;28;20371;-70
2023/07/25 00:54:14;;;;;;;;;;;14.10;99.90;;;;;;8380511;28;19947;-70
2023/07/25 00:58:16;;;;;;;;;;;14.10;99.90;;;;;;8353644;28;19975;-70
2023/07/25 01:02:18;;;;;;;;;;;14.00;99.90;;;;;;8371589;28;19925;-70
2023/07/25 01:06:20;;;;;;;;;;;14.00;99.90;;;;;;8365500;28;19938;-70
2023/07/25 01:10:22;;;;;;;;;;;13.90;99.90;;;;;;8377431;28;19936;-70
2023/07/25 01:14:23;;;;;;;;;;;13.90;99.90;;;;;;8388926;28;19928;-70
2023/07/25 01:18:25;;;;;;;;;;;13.80;99.90;;;;;;8392057;28;19924;-71
2023/07/25 01:22:27;;;;;;;;;;;13.80;99.90;;;;;;8382545;28;19937;-70
2023/07/25 01:26:29;;;;;;;;;;;13.70;99.90;;;;;;8358369;28;19931;-70
2023/07/25 01:30:31;;;;;;;;;;;13.60;99.90;;;;;;8369381;28;19928;-70
2023/07/25 01:34:32;;;;;;;;;;;13.60;99.90;;;;;;8374821;28;19947;-70
2023/07/25 01:38:34;;;;;;;;;;;13.60;99.90;;;;;;8388568;28;19928;-70
2023/07/25 01:42:36;;;;;;;;;;;13.50;99.90;;;;;;8366847;28;19933;-70
2023/07/25 01:46:41;;;;;;;;;;;13.50;99.90;;;;;;8393978;28;19935;-70
2023/07/25 01:50:42;;;;;;;;;;;13.50;99.90;;;;;;8368790;28;19924;-70
2023/07/25 01:54:44;;;;;;;;;;;13.50;99.90;;;;;;8362563;28;19925;-70
2023/07/25 01:58:46;;;;;;;;;;;13.40;99.90;;;;;;8392852;28;19924;-70
2023/07/25 02:02:48;;;;;;;;;;;13.40;99.90;;;;;;8370452;28;19925;-70
2023/07/25 02:06:50;;;;;;;;;;;13.40;99.90;;;;;;8363040;28;20390;-70
2023/07/25 02:10:51;;;;;;;;;;;13.30;99.90;;;;;;8375248;28;19933;-70
2023/07/25 02:14:53;;;;;;;;;;;13.20;99.90;;;;;;8358939;28;19932;-70
2023/07/25 02:18:54;;;;;;;;;;;13.20;99.90;;;;;;8395390;28;19924;-70
2023/07/25 02:22:56;;;;;;;;;;;13.20;99.90;;;;;;8373487;28;20388;-70
2023/07/25 02:26:58;;;;;;;;;;;13.10;99.90;;;;;;8376392;28;19931;-70
2023/07/25 02:31:00;;;;;;;;;;;13.10;99.90;;;;;;8375538;28;19925;-69
2023/07/25 02:35:01;;;;;;;;;;;13.00;99.90;;;;;;8386902;28;19932;-70
2023/07/25 02:39:03;;;;;;;;;;;13.00;99.90;;;;;;8389938;28;20383;-70
2023/07/25 02:43:06;;;;;;;;;;;12.90;99.90;;;;;;8382837;28;20291;-70
2023/07/25 02:47:07;;;;;;;;;;;12.90;99.90;;;;;;8399626;28;20002;-70
2023/07/25 02:51:09;;;;;;;;;;;12.80;99.90;;;;;;8354044;28;20442;-70
2023/07/25 02:55:10;;;;;;;;;;;12.80;99.90;;;;;;8389144;28;19928;-70
2023/07/25 02:59:12;;;;;;;;;;;12.80;99.90;;;;;;8381446;28;19925;-70
2023/07/25 03:03:14;;;;;;;;;;;12.80;99.90;;;;;;8383526;28;20346;-70
2023/07/25 03:07:15;;;;;;;;;;;12.80;99.90;;;;;;8392621;28;20426;-70
2023/07/25 03:11:17;;;;;;;;;;;12.70;99.90;;;;;;8372316;28;19932;-70
2023/07/25 03:15:19;;;;;;;;;;;12.70;99.90;;;;;;8371993;28;19955;-70
2023/07/25 03:19:21;;;;;;;;;;;12.70;99.90;;;;;;8386862;28;20015;-70
2023/07/25 03:23:23;;;;;;;;;;;12.80;99.90;;;;;;8371549;28;19925;-70
2023/07/25 03:27:25;;;;;;;;;;;12.80;99.90;;;;;;8387598;28;19924;-70
2023/07/25 03:31:26;;;;;;;;;;;12.80;99.90;;;;;;8403507;28;19959;-70
2023/07/25 03:35:28;;;;;;;;;;;12.80;99.90;;;;;;8389767;28;20331;-70
2023/07/25 03:39:30;;;;;;;;;;;12.70;99.90;;;;;;8368610;28;19929;-70
2023/07/25 03:43:31;;;;;;;;;;;12.70;99.90;;;;;;8363031;28;19931;-70
2023/07/25 03:47:33;;;;;;;;;;;12.80;99.90;;;;;;8377820;28;19924;-70
2023/07/25 03:51:36;;;;;;;;;;;12.80;99.90;;;;;;8358149;28;20361;-70
2023/07/25 03:55:38;;;;;;;;;;;12.70;99.90;;;;;;8376085;28;19924;-70
2023/07/25 03:59:40;;;;;;;;;;;12.70;99.90;;;;;;8373957;28;19925;-70
2023/07/25 04:03:41;;;;;;;;;;;12.70;99.90;;;;;;8381188;28;19925;-70
2023/07/25 04:07:43;;;;;;;;;;;12.70;99.90;;;;;;8387136;28;20282;-70
2023/07/25 04:11:45;;;;;;;;;;;12.70;99.90;;;;;;8385392;28;20289;-70
2023/07/25 04:15:46;;;;;;;;;;;12.70;99.90;;;;;;8381587;28;19929;-70
2023/07/25 04:19:48;;;;;;;;;;;12.70;99.90;;;;;;8384756;28;19924;-70
2023/07/25 04:23:49;;;;;;;;;;;12.70;99.90;;;;;;8374965;28;19924;-70
2023/07/25 04:27:51;;;;;;;;;;;12.70;99.90;;;;;;8379842;28;19974;-70
2023/07/25 04:42:00;;;;;;;;;;;12.80;99.90;;;;;;8378934;28;20231;-70
2023/07/25 04:46:02;;;;;;;;;;;12.70;99.90;;;;;;8372784;28;19925;-70
2023/07/25 04:50:04;;;;;;;;;;;12.80;99.90;;;;;;8369091;28;19946;-70
2023/07/25 04:54:06;;;;;;;;;;;12.70;99.90;;;;;;8363597;28;19939;-70
2023/07/25 04:58:07;;;;;;;;;;;12.80;99.90;;;;;;8373828;28;19926;-70
2023/07/25 05:02:09;;;;;;;;;;;12.80;99.90;;;;;;8385900;28;19928;-70
2023/07/25 05:06:11;;;;;;;;;;;12.80;99.90;;;;;;8403248;28;19929;-70
2023/07/25 05:10:13;;;;;;;;;;;12.90;99.90;;;;;;8403109;28;20440;-70
2023/07/25 05:14:14;;;;;;;;;;;12.90;99.90;;;;;;8396072;28;19947;-70
2023/07/25 05:18:16;;;;;;;;;;;13.00;99.90;;;;;;8366373;28;20062;-70
2023/07/25 05:22:18;;;;;;;;;;;13.00;99.90;;;;;;8366480;28;20292;-70
2023/07/25 05:26:19;;;;;;;;;;;13.00;99.90;;;;;;8370679;28;19924;-70
2023/07/25 05:30:21;;;;;;;;;;;13.10;99.90;;;;;;8381551;28;20320;-70
2023/07/25 05:34:23;;;;;;;;;;;13.20;99.90;;;;;;8384949;28;20223;-70
2023/07/25 05:38:24;;;;;;;;;;;13.30;99.90;;;;;;8362823;28;20329;-70
2023/07/25 05:42:26;;;;;;;;;;;13.40;99.90;;;;;;8356749;28;20360;-70
2023/07/25 05:46:28;;;;;;;;;;;13.50;99.90;;;;;;8368327;28;19932;-70
2023/07/25 05:50:29;;;;;;;;;;;13.60;99.90;;;;;;8392497;28;19925;-70
2023/07/25 05:54:31;;;;;;;;;;;13.70;99.90;;;;;;8374557;28;19936;-70
2023/07/25 05:58:33;;;;;;;;;;;13.80;99.90;;;;;;8367097;28;19933;-70
2023/07/25 06:02:34;;;;;;;;;;;13.80;99.90;;;;;;8380596;28;19932;-70
2023/07/25 06:06:36;;;;;;;;;;;13.90;99.90;;;;;;8371410;28;19929;-70
2023/07/25 06:10:38;;;;;;;;;;;14.00;99.90;;;;;;8382764;28;19929;-70
2023/07/25 06:14:40;;;;;;;;;;;14.10;99.90;;;;;;8383617;28;19974;-70
2023/07/25 06:33:46;;;;;;;;;;;14.50;99.90;;;;;;8366481;28;20411;-70
2023/07/25 06:37:48;;;;;;;;;;;14.70;99.90;;;;;;8368186;28;19931;-70
2023/07/25 06:41:50;;;;;;;;;;;14.70;99.90;;;;;;8402346;28;20171;-72
2023/07/25 06:45:52;;;;;;;;;;;14.90;99.90;;;;;;8366804;28;19928;-71
2023/07/25 06:49:54;;;;;;;;;;;15.00;99.90;;;;;;8397674;28;19928;-72
2023/07/25 06:53:55;;;;;;;;;;;15.10;99.90;;;;;;8367229;28;19925;-73
2023/07/25 06:57:59;;;;;;;;;;;15.20;99.90;;;;;;8347769;28;20201;-72
2023/07/25 07:02:00;;;;;;;;;;;15.20;99.90;;;;;;8378950;28;19947;-72
2023/07/25 07:06:02;;;;;;;;;;;15.30;99.90;;;;;;8388296;28;19924;-72
2023/07/25 07:10:04;;;;;;;;;;;15.40;99.90;;;;;;8386831;28;19932;-72
2023/07/25 07:14:06;;;;;;;;;;;15.50;99.90;;;;;;8391551;28;20371;-71
2023/07/25 07:18:08;;;;;;;;;;;15.60;99.90;;;;;;8393635;28;20394;-73
2023/07/25 07:22:09;;;;;;;;;;;15.60;99.90;;;;;;8379197;28;19925;-73
2023/07/25 07:26:11;;;;;;;;;;;15.60;99.90;;;;;;8371036;28;19928;-72
2023/07/25 07:30:13;;;;;;;;;;;15.70;99.90;;;;;;8359190;28;19933;-70
2023/07/25 07:34:15;;;;;;;;;;;15.80;99.90;;;;;;8384707;28;19931;-69
2023/07/25 07:38:17;;;;;;;;;;;15.90;99.90;;;;;;8384526;28;19928;-70
2023/07/25 07:42:19;;;;;;;;;;;16.10;99.90;;;;;;8384352;28;20348;-70
2023/07/25 07:46:21;;;;;;;;;;;16.20;99.90;;;;;;8375315;28;19931;-70
2023/07/25 08:00:19;;;;;;;;;;;16.30;99.90;;;;;;8361824;28;19932;-70
2023/07/25 08:04:21;;;;;;;;;;;16.40;99.90;;;;;;8373820;28;19925;-70
2023/07/25 08:08:23;;;;;;;;;;;16.50;99.90;;;;;;8311635;28;19929;-70
2023/07/25 08:12:24;;;;;;;;;;;16.60;99.90;;;;;;8285453;28;20300;-70
2023/07/25 08:16:26;;;;;;;;;;;16.70;99.90;;;;;;8303624;28;19925;-70
2023/07/25 08:20:28;;;;;;;;;;;16.80;99.90;;;;;;8299507;28;19925;-70
2023/07/25 08:24:29;;;;;;;;;;;16.80;99.90;;;;;;8302753;28;19929;-70
2023/07/25 08:28:31;;;;;;;;;;;16.90;99.90;;;;;;8296419;28;19972;-71
2023/07/25 08:32:33;;;;;;;;;;;17.00;99.90;;;;;;8300172;28;20331;-70
2023/07/25 08:36:34;;;;;;;;;;;17.20;99.90;;;;;;8294590;28;19929;-70
2023/07/25 08:40:36;;;;;;;;;;;17.20;99.90;;;;;;8300850;28;19926;-71
2023/07/25 08:44:39;;;;;;;;;;;17.10;99.90;;;;;;8300679;28;19929;-70
2023/07/25 08:48:41;;;;;;;;;;;17.00;99.90;;;;;;8295329;28;20359;-70
2023/07/25 08:52:46;;;;;;;;;;;17.00;99.90;;;;;;8296969;28;19987;-71
2023/07/25 08:56:48;;;;;;;;;;;17.00;99.90;;;;;;8299216;28;19971;-70
2023/07/25 09:00:50;;;;;;;;;;;17.00;99.90;;;;;;8328345;28;19932;-70
2023/07/25 09:04:52;;;;;;;;;;;17.10;99.90;;;;;;8337772;28;19932;-70
2023/07/25 09:08:54;;;;;;;;;;;17.00;99.90;;;;;;8332301;28;19924;-70
2023/07/25 09:12:56;;;;;;;;;;;17.00;99.90;;;;;;8343119;28;19929;-70
2023/07/25 09:16:57;;;;;;;;;;;17.00;99.90;;;;;;8332995;28;20375;-70
2023/07/25 09:20:59;;;;;;;;;;;17.20;99.90;;;;;;8330234;28;19929;-70
2023/07/25 09:25:06;;;;;;;;;;;17.20;99.90;;;;;;8334940;28;19925;-70
2023/07/25 09:29:08;;;;;;;;;;;17.20;99.90;;;;;;8332743;28;19925;-70
2023/07/25 09:33:21;;;;;;;;;;;17.20;99.90;;;;;;8331767;28;20373;-70
2023/07/25 09:37:23;;;;;;;;;;;17.20;99.90;;;;;;8330356;28;19986;-70
2023/07/25 09:41:25;;;;;;;;;;;17.20;99.90;;;;;;8328496;28;19948;-70
2023/07/25 09:45:35;;;;;;;;;;;17.20;99.90;;;;;;8336271;28;19929;-70
2023/07/25 09:49:37;;;;;;;;;;;17.10;99.90;;;;;;8330903;28;19925;-70
2023/07/25 09:53:42;;;;;;;;;;;17.20;99.90;;;;;;8325588;28;20004;-70
2023/07/25 09:57:44;;;;;;;;;;;17.30;99.90;;;;;;8327738;28;20277;-70
2023/07/25 10:01:46;;;;;;;;;;;17.40;99.90;;;;;;8327137;28;19929;-70
2023/07/25 10:05:48;;;;;;;;;;;17.50;99.90;;;;;;8335261;28;19998;-70
2023/07/25 10:09:49;;;;;;;;;;;17.60;99.90;;;;;;8324853;28;20285;-70
2023/07/25 10:13:51;;;;;;;;;;;17.60;99.90;;;;;;8335537;28;20364;-70
2023/07/25 10:28:01;;;;;;;;;;;17.60;99.90;;;;;;8330609;28;19923;-71
2023/07/25 10:32:03;;;;;;;;;;;17.70;99.90;;;;;;8330933;28;19925;-71
2023/07/25 10:36:06;;;;;;;;;;;17.80;99.90;;;;;;8333036;28;19933;-70
2023/07/25 10:40:13;;;;;;;;;;;17.90;99.90;;;;;;8348014;28;19932;-71
2023/07/25 10:44:34;;;;;;;;;;;18.10;99.90;;;;;;8331878;28;20376;-71
2023/07/25 10:48:43;;;;;;;;;;;18.20;99.90;;;;;;8326625;28;19932;-70
2023/07/25 10:52:45;;;;;;;;;;;18.30;99.90;;;;;;8329396;28;19940;-70
2023/07/25 10:57:06;;;;;;;;;;;18.20;99.90;;;;;;8326422;28;19929;-71
2023/07/25 11:01:27;;;;;;;;;;;18.10;99.90;;;;;;8333771;28;19937;-70
2023/07/25 11:05:30;;;;;;;;;;;18.10;99.90;;;;;;8348997;28;19925;-70
2023/07/25 11:09:31;;;;;;;;;;;18.20;99.90;;;;;;8332480;28;19983;-70
2023/07/25 11:13:34;;;;;;;;;;;18.30;99.90;;;;;;8329511;28;19948;-70
2023/07/25 11:17:36;;;;;;;;;;;18.30;99.90;;;;;;8328087;28;20403;-70
2023/07/25 11:21:41;;;;;;;;;;;18.20;99.90;;;;;;8334545;28;19928;-70
2023/07/25 11:25:51;;;;;;;;;;;18.20;99.90;;;;;;8331735;28;19924;-70
2023/07/25 11:30:07;;;;;;;;;;;18.20;99.90;;;;;;8348191;28;19983;-71
2023/07/25 11:34:13;;;;;;;;;;;18.20;99.90;;;;;;8332590;28;19979;-71
2023/07/25 11:38:15;;;;;;;;;;;18.30;99.90;;;;;;8335280;28;20183;-71
2023/07/25 11:42:16;;;;;;;;;;;18.40;99.90;;;;;;8336674;28;19925;-71
2023/07/25 11:46:18;;;;;;;;;;;18.50;99.90;;;;;;8332727;28;19932;-70
2023/07/25 11:50:20;;;;;;;;;;;18.50;99.90;;;;;;8333860;28;19964;-70
2023/07/25 11:54:30;;;;;;;;;;;18.40;99.90;;;;;;8337821;28;19929;-71
2023/07/25 11:58:34;;;;;;;;;;;18.30;99.90;;;;;;8330416;28;19925;-71
2023/07/25 12:02:37;;;;;;;;;;;18.40;99.90;;;;;;8331717;28;19933;-70
2023/07/25 12:06:38;;;;;;;;;;;18.40;99.90;;;;;;8330755;28;19962;-70
2023/07/25 12:10:40;;;;;;;;;;;18.50;99.90;;;;;;8331309;28;19929;-71
2023/07/25 12:14:52;;;;;;;;;;;18.60;99.90;;;;;;8346613;28;19929;-70
2023/07/25 12:18:56;;;;;;;;;;;18.80;99.90;;;;;;8318161;28;20000;-70
2023/07/25 12:23:05;;;;;;;;;;;18.80;99.90;;;;;;8356425;28;19925;-71
2023/07/25 12:27:19;;;;;;;;;;;18.70;99.90;;;;;;8332443;28;20376;-70
2023/07/25 12:31:21;;;;;;;;;;;18.70;99.90;;;;;;8330739;28;19935;-70
2023/07/25 12:35:23;;;;;;;;;;;18.70;99.90;;;;;;8344032;28;19925;-71
2023/07/25 12:39:25;;;;;;;;;;;18.70;99.90;;;;;;8347774;28;19933;-71
2023/07/25 12:43:26;;;;;;;;;;;18.80;99.90;;;;;;8347859;28;19933;-70
2023/07/25 12:47:28;;;;;;;;;;;18.80;99.90;;;;;;8346290;28;19929;-71
2023/07/25 12:51:30;;;;;;;;;;;18.80;99.90;;;;;;8330459;28;19932;-71
2023/07/25 12:55:33;;;;;;;;;;;18.70;99.90;;;;;;8327204;28;20423;-70
2023/07/25 12:59:36;;;;;;;;;;;18.70;99.90;;;;;;8347172;28;19976;-70
2023/07/25 13:03:40;;;;;;;;;;;18.70;99.90;;;;;;8352141;28;19932;-71
2023/07/25 13:07:42;;;;;;;;;;;18.80;99.90;;;;;;8331649;28;19935;-70
2023/07/25 13:11:44;;;;;;;;;;;18.80;99.90;;;;;;8328896;28;20300;-71
2023/07/25 13:15:46;;;;;;;;;;;18.90;99.90;;;;;;8355619;28;20375;-71
2023/07/25 13:19:48;;;;;;;;;;;18.90;99.90;;;;;;8325030;28;20287;-71
2023/07/25 13:23:49;;;;;;;;;;;18.90;99.90;;;;;;8331593;28;19925;-71
2023/07/25 13:27:51;;;;;;;;;;;18.90;99.90;;;;;;8344266;28;19979;-70
2023/07/25 13:31:53;;;;;;;;;;;18.90;99.90;;;;;;8332742;28;20383;-70
2023/07/25 13:35:54;;;;;;;;;;;18.90;99.90;;;;;;8326831;28;19936;-71
2023/07/25 13:39:56;;;;;;;;;;;18.90;99.90;;;;;;8333178;28;19929;-70
2023/07/25 13:43:58;;;;;;;;;;;19.00;99.90;;;;;;8346156;28;19932;-71
2023/07/25 13:47:59;;;;;;;;;;;19.10;99.90;;;;;;8330979;28;19932;-70
2023/07/25 13:52:01;;;;;;;;;;;19.20;99.90;;;;;;8337190;28;19925;-71
2023/07/25 13:56:04;;;;;;;;;;;19.20;99.90;;;;;;8327332;28;19933;-70
2023/07/25 14:00:07;;;;;;;;;;;19.30;99.90;;;;;;8334943;28;19936;-70
2023/07/25 14:04:11;;;;;;;;;;;19.40;99.90;;;;;;8350761;28;20405;-70
2023/07/25 14:08:12;;;;;;;;;;;19.50;99.90;;;;;;8333042;28;19994;-71
2023/07/25 14:12:14;;;;;;;;;;;19.60;99.90;;;;;;8339978;28;19932;-70
2023/07/25 14:16:16;;;;;;;;;;;19.60;99.90;;;;;;8326952;28;19933;-70
2023/07/25 14:20:18;;;;;;;;;;;19.70;99.90;;;;;;8329006;28;19963;-70
2023/07/25 14:24:19;;;;;;;;;;;19.70;99.90;;;;;;8345558;28;20376;-70
2023/07/25 14:28:21;;;;;;;;;;;19.80;99.90;;;;;;8333887;28;19944;-71
2023/07/25 14:42:30;;;;;;;;;;;19.40;99.90;;;;;;8327388;28;19940;-70
2023/07/25 14:46:31;;;;;;;;;;;19.40;99.90;;;;;;8325884;28;19933;-71
2023/07/25 14:50:34;;;;;;;;;;;19.50;99.90;;;;;;8330749;28;20028;-71
2023/07/25 14:54:36;;;;;;;;;;;19.50;99.90;;;;;;8336393;28;20342;-71
2023/07/25 14:58:38;;;;;;;;;;;19.50;99.90;;;;;;8336502;28;19925;-71
2023/07/25 15:02:39;;;;;;;;;;;19.40;99.90;;;;;;8338278;28;19932;-70
2023/07/25 15:06:41;;;;;;;;;;;19.30;99.90;;;;;;8352438;28;19980;-71
2023/07/25 15:10:43;;;;;;;;;;;19.40;99.90;;;;;;8319488;28;20000;-71
2023/07/25 15:14:45;;;;;;;;;;;19.60;99.90;;;;;;8351521;28;19929;-71
2023/07/25 15:28:47;;;;;;;;;;;20.10;99.90;;;;;;8334763;28;20014;-71
2023/07/25 15:32:49;;;;;;;;;;;20.30;99.90;;;;;;8337281;28;19933;-71
2023/07/25 15:36:50;;;;;;;;;;;20.50;99.90;;;;;;8333080;28;20295;-71
2023/07/25 15:40:54;;;;;;;;;;;20.60;99.90;;;;;;8334183;28;19929;-71
2023/07/25 15:44:56;;;;;;;;;;;20.60;99.90;;;;;;8334489;28;19929;-72
2023/07/25 15:48:58;;;;;;;;;;;20.50;99.90;;;;;;8333394;28;20372;-71
2023/07/25 15:53:00;;;;;;;;;;;20.60;99.90;;;;;;8339569;28;20284;-71
2023/07/25 15:57:02;;;;;;;;;;;20.70;99.90;;;;;;8338825;28;19925;-71
2023/07/25 16:01:04;;;;;;;;;;;20.90;99.90;;;;;;8333438;28;19932;-72
2023/07/25 16:05:05;;;;;;;;;;;21.00;99.90;;;;;;8348004;28;19936;-71
2023/07/25 16:09:07;;;;;;;;;;;20.80;99.90;;;;;;8352897;28;20281;-71
2023/07/25 16:13:09;;;;;;;;;;;20.70;99.90;;;;;;8337719;28;19933;-71
2023/07/25 16:17:11;;;;;;;;;;;20.90;99.90;;;;;;8342967;28;20384;-71
2023/07/25 16:21:12;;;;;;;;;;;21.20;99.90;;;;;;8343794;28;19979;-72
2023/07/25 16:25:14;;;;;;;;;;;21.60;99.90;;;;;;8331690;28;19925;-71
2023/07/25 16:29:16;;;;;;;;;;;21.90;99.90;;;;;;8344929;28;20408;-71
2023/07/25 16:33:17;;;;;;;;;;;22.10;99.90;;;;;;8335446;28;19929;-71
2023/07/25 16:37:19;;;;;;;;;;;22.20;99.90;;;;;;8331979;28;20280;-71
2023/07/25 16:41:21;;;;;;;;;;;22.40;99.90;;;;;;8332955;28;19925;-71
2023/07/25 16:45:23;;;;;;;;;;;22.50;99.90;;;;;;8331812;28;19950;-71
2023/07/25 16:49:25;;;;;;;;;;;22.40;99.90;;;;;;8328300;28;19979;-71
2023/07/25 16:53:28;;;;;;;;;;;22.20;99.90;;;;;;8331497;28;19925;-71
2023/07/25 16:57:30;;;;;;;;;;;22.10;99.90;;;;;;8334226;28;19932;-72
2023/07/25 17:01:32;;;;;;;;;;;22.00;99.90;;;;;;8327616;28;20312;-72
2023/07/25 17:05:34;;;;;;;;;;;21.90;99.90;;;;;;8347050;28;19959;-71
2023/07/25 17:09:36;;;;;;;;;;;21.70;99.90;;;;;;8344938;28;19925;-71
2023/07/25 17:13:37;;;;;;;;;;;21.30;99.90;;;;;;8330776;28;19929;-71
2023/07/25 17:17:39;;;;;;;;;;;20.60;99.90;;;;;;8344689;28;20388;-71
2023/07/25 17:21:41;;;;;;;;;;;20.20;99.90;;;;;;8335705;28;19929;-71
2023/07/25 17:25:43;;;;;;;;;;;20.00;99.90;;;;;;8355408;28;19929;-71
2023/07/25 17:29:44;;;;;;;;;;;19.90;99.90;;;;;;8347787;28;19926;-71
2023/07/25 17:33:46;;;;;;;;;;;19.90;99.90;;;;;;8328305;28;19929;-71
2023/07/25 17:37:48;;;;;;;;;;;19.80;99.90;;;;;;8339220;28;19929;-71
2023/07/25 17:41:49;;;;;;;;;;;19.70;99.90;;;;;;8330327;28;19924;-71
2023/07/25 17:45:51;;;;;;;;;;;19.50;99.90;;;;;;8344443;28;19939;-71
2023/07/25 17:49:53;;;;;;;;;;;19.40;99.90;;;;;;8332808;28;20353;-71
2023/07/25 17:53:55;;;;;;;;;;;19.30;99.90;;;;;;8335182;28;19937;-71
2023/07/25 17:57:57;;;;;;;;;;;19.30;99.90;;;;;;8334527;28;20281;-71
2023/07/25 18:01:58;;;;;;;;;;;19.30;99.90;;;;;;8330739;28;20368;-71
2023/07/25 18:06:00;;;;;;;;;;;19.30;99.90;;;;;;8329444;28;19925;-71
2023/07/25 18:10:02;;;;;;;;;;;19.30;99.90;;;;;;8344048;28;20015;-70
2023/07/25 18:14:04;;;;;;;;;;;19.30;99.90;;;;;;8329525;28;19932;-71
2023/07/25 18:18:05;;;;;;;;;;;19.10;99.90;;;;;;8338385;28;19929;-72
2023/07/25 18:22:07;;;;;;;;;;;19.10;99.90;;;;;;8331868;28;19929;-71
2023/07/25 18:26:09;;;;;;;;;;;19.00;99.90;;;;;;8326274;28;19929;-71
2023/07/25 18:30:11;;;;;;;;;;;18.80;99.90;;;;;;8345976;28;20051;-72
2023/07/25 18:34:13;;;;;;;;;;;18.70;99.90;;;;;;8337684;28;20450;-71
2023/07/25 18:38:15;;;;;;;;;;;18.50;99.90;;;;;;8345069;28;19937;-71
2023/07/25 18:42:16;;;;;;;;;;;18.40;99.90;;;;;;8340390;28;20292;-70
2023/07/25 18:46:18;;;;;;;;;;;18.30;99.90;;;;;;8343342;28;19928;-71
2023/07/25 18:50:20;;;;;;;;;;;18.20;99.90;;;;;;8340518;28;19929;-71
2023/07/25 18:54:33;;;;;;;;;;;18.10;99.90;;;;;;8360476;28;19924;-71
2023/07/25 18:58:35;;;;;;;;;;;18.10;99.90;;;;;;8346022;28;19971;-71
2023/07/25 19:02:37;;;;;;;;;;;18.00;99.90;;;;;;8349813;28;19932;-72
2023/07/25 19:06:39;;;;;;;;;;;18.00;99.90;;;;;;8342311;28;19929;-71
2023/07/25 19:10:40;;;;;;;;;;;18.00;99.90;;;;;;8338722;28;20271;-71
2023/07/25 19:14:42;;;;;;;;;;;18.00;99.90;;;;;;8358076;28;19948;-71
2023/07/25 19:18:44;;;;;;;;;;;18.00;99.90;;;;;;8344570;28;20380;-72
2023/07/25 19:27:49;;;;;;;;;;;18.00;99.90;;;;;;8344471;28;20390;-71
2023/07/25 19:31:51;;;;;;;;;;;17.90;99.90;;;;;;8341986;28;19925;-71
2023/07/25 19:51:07;;;;;;;;;;;18.00;99.90;;;;;;8336771;28;20343;-71
2023/07/25 19:55:09;;;;;;;;;;;17.90;99.90;;;;;;8347489;28;19936;-72
2023/07/25 19:59:10;;;;;;;;;;;17.90;99.90;;;;;;8343279;28;19951;-72
2023/07/25 20:03:12;;;;;;;;;;;17.90;99.90;;;;;;8348443;28;19924;-71
2023/07/25 20:07:14;;;;;;;;;;;17.90;99.90;;;;;;8337609;28;20283;-71
2023/07/25 20:11:15;;;;;;;;;;;17.80;99.90;;;;;;8330386;28;19925;-72
2023/07/25 20:15:17;;;;;;;;;;;17.80;99.90;;;;;;8333414;28;19963;-71
2023/07/25 20:19:22;;;;;;;;;;;17.70;99.90;;;;;;8340473;28;19925;-71
2023/07/25 20:23:24;;;;;;;;;;;17.70;99.90;;;;;;8339848;28;19929;-71
2023/07/25 20:27:26;;;;;;;;;;;17.60;99.90;;;;;;8337271;28;20354;-71
2023/07/25 20:31:27;;;;;;;;;;;17.50;99.90;;;;;;8354639;28;19933;-71
2023/07/25 20:35:29;;;;;;;;;;;17.50;99.90;;;;;;8333394;28;19925;-71
2023/07/25 20:39:31;;;;;;;;;;;17.40;99.90;;;;;;8337629;28;19929;-71
2023/07/25 20:43:33;;;;;;;;;;;17.40;99.90;;;;;;8333449;28;20372;-71
2023/07/25 20:47:34;;;;;;;;;;;17.30;99.90;;;;;;8333183;28;19932;-71
2023/07/25 20:51:36;;;;;;;;;;;17.30;99.90;;;;;;8337271;28;19929;-71
2023/07/25 20:55:38;;;;;;;;;;;17.20;99.90;;;;;;8346948;28;19933;-72
2023/07/25 20:59:39;;;;;;;;;;;17.20;99.90;;;;;;8331458;28;19925;-71
2023/07/25 21:03:41;;;;;;;;;;;17.20;99.90;;;;;;8364730;28;20391;-71
2023/07/25 21:07:43;;;;;;;;;;;17.10;99.90;;;;;;8383674;28;20371;-71
2023/07/25 21:11:44;;;;;;;;;;;17.00;99.90;;;;;;8378743;28;19932;-72
2023/07/25 21:15:48;;;;;;;;;;;16.90;99.90;;;;;;8390421;28;19970;-72
2023/07/25 21:19:50;;;;;;;;;;;16.90;99.90;;;;;;8388358;28;20310;-71
2023/07/25 21:23:52;;;;;;;;;;;16.80;99.90;;;;;;8366410;28;19925;-71
2023/07/25 21:27:53;;;;;;;;;;;16.80;99.90;;;;;;8363207;28;19946;-71
2023/07/25 21:31:55;;;;;;;;;;;16.70;99.90;;;;;;8355783;28;20284;-71
2023/07/25 21:36:13;;;;;;;;;;;16.80;99.90;;;;;;8377006;28;19932;-71
2023/07/25 21:40:15;;;;;;;;;;;16.80;99.90;;;;;;8377370;28;20061;-71
2023/07/25 21:44:17;;;;;;;;;;;16.80;99.90;;;;;;8373395;28;19934;-71
2023/07/25 21:48:18;;;;;;;;;;;16.90;99.90;;;;;;8382496;28;19924;-71
2023/07/25 21:52:20;;;;;;;;;;;16.90;99.90;;;;;;8385349;28;19935;-71
2023/07/25 21:56:21;;;;;;;;;;;16.90;99.90;;;;;;8380108;28;20288;-71
2023/07/25 22:00:23;;;;;;;;;;;16.90;99.90;;;;;;8388196;28;19925;-71
2023/07/25 22:04:25;;;;;;;;;;;16.90;99.90;;;;;;8392012;28;20338;-71
2023/07/25 22:08:26;;;;;;;;;;;16.90;99.90;;;;;;8374528;28;19932;-71
2023/07/25 22:12:28;;;;;;;;;;;16.80;99.90;;;;;;8374059;28;19955;-71
2023/07/25 22:16:30;;;;;;;;;;;16.80;99.90;;;;;;8350245;28;19932;-71
2023/07/25 22:20:32;;;;;;;;;;;16.70;99.90;;;;;;8377918;28;19932;-71
2023/07/25 22:24:46;;;;;;;;;;;16.60;99.90;;;;;;8362312;28;19932;-71
2023/07/25 22:28:48;;;;;;;;;;;16.60;99.90;;;;;;8375151;28;19925;-71
2023/07/25 22:32:50;;;;;;;;;;;16.60;99.90;;;;;;8383460;28;19932;-71
2023/07/25 22:36:51;;;;;;;;;;;16.50;99.90;;;;;;8390018;28;19929;-71
2023/07/25 22:40:53;;;;;;;;;;;16.50;99.90;;;;;;8361155;28;19933;-71
2023/07/25 22:44:55;;;;;;;;;;;16.40;99.90;;;;;;8381974;28;19924;-71
2023/07/25 22:48:59;;;;;;;;;;;16.40;99.90;;;;;;8384858;28;19925;-71
2023/07/25 22:53:01;;;;;;;;;;;16.30;99.90;;;;;;8365285;28;20261;-71
2023/07/25 22:57:03;;;;;;;;;;;16.30;99.90;;;;;;8375737;28;19924;-71
2023/07/25 23:01:04;;;;;;;;;;;16.30;99.90;;;;;;8386306;28;19924;-71
2023/07/25 23:05:06;;;;;;;;;;;16.30;99.90;;;;;;8369722;28;20330;-71
2023/07/25 23:09:08;;;;;;;;;;;16.20;99.90;;;;;;8359050;28;19970;-71
2023/07/25 23:13:10;;;;;;;;;;;16.10;99.90;;;;;;8383607;28;20012;-71
2023/07/25 23:17:11;;;;;;;;;;;16.10;99.90;;;;;;8373758;28;19970;-71
2023/07/25 23:26:16;;;;;;;;;;;16.20;99.90;;;;;;8361592;28;19920;-71
2023/07/25 23:30:18;;;;;;;;;;;16.30;99.90;;;;;;8356091;28;19975;-71
2023/07/25 23:34:20;;;;;;;;;;;16.30;99.90;;;;;;8384668;28;19983;-71
2023/07/25 23:38:21;;;;;;;;;;;16.30;99.90;;;;;;8384633;28;19925;-71
2023/07/25 23:42:23;;;;;;;;;;;16.30;99.90;;;;;;8386739;28;20375;-71
2023/07/25 23:46:25;;;;;;;;;;;16.30;99.90;;;;;;8379727;28;19928;-71
2023/07/25 23:50:26;;;;;;;;;;;16.30;99.90;;;;;;8368621;28;20383;-71
2023/07/25 23:54:28;;;;;;;;;;;16.30;99.90;;;;;;8389303;28;20288;-71
2023/07/25 23:58:30;;;;;;;;;;;16.30;99.90;;;;;;8393507;28;20292;-71
